<?xml version="1.0" encoding="UTF-8" standalone="no" ?>
<gpx xmlns="http://www.topografix.com/GPX/1/1" xmlns:xsi="http://www.w3.org/2001/XMLSchema-instance" xsi:schemaLocation="http://www.topografix.com/GPX/1/1 http://www.topografix.com/GPX/1/1/gpx.xsd" version="1.1" creator="VisuGPX - https://www.visugpx.com">
  <metadata>
    <name>Circuit du 18-06-2012</name>
    <desc><![CDATA[Circuit du 18-06-2012]]></desc>
  </metadata>
  <wpt lat="45.37603" lon="3.74971">
    <ele>726.90002441406</ele>
    <name><![CDATA[Start]]></name>
  </wpt>
  <wpt lat="45.38039" lon="3.74852">
    <ele>666.40002441406</ele>
    <name><![CDATA[End]]></name>
  </wpt>
  <trk>
    <name><![CDATA[Circuit du 18-06-2012_1]]></name>
    <trkseg>
      <trkpt lat="45.37603" lon="3.74971">
        <ele>726.90002441406</ele>
        <time>2012-06-18T08:52:07Z</time>
      </trkpt>
      <trkpt lat="45.37598" lon="3.74983">
        <ele>727.40002441406</ele>
        <time>2012-06-18T08:52:09Z</time>
      </trkpt>
      <trkpt lat="45.376" lon="3.7499">
        <ele>721</ele>
        <time>2012-06-18T08:52:16Z</time>
      </trkpt>
      <trkpt lat="45.37599" lon="3.74999">
        <ele>720.40002441406</ele>
        <time>2012-06-18T08:52:18Z</time>
      </trkpt>
      <trkpt lat="45.37598" lon="3.75013">
        <ele>721.70001220703</ele>
        <time>2012-06-18T08:52:22Z</time>
      </trkpt>
      <trkpt lat="45.376" lon="3.75019">
        <ele>718.20001220703</ele>
        <time>2012-06-18T08:52:27Z</time>
      </trkpt>
      <trkpt lat="45.37601" lon="3.75027">
        <ele>716.90002441406</ele>
        <time>2012-06-18T08:52:30Z</time>
      </trkpt>
      <trkpt lat="45.37603" lon="3.75035">
        <ele>716.90002441406</ele>
        <time>2012-06-18T08:52:34Z</time>
      </trkpt>
      <trkpt lat="45.37604" lon="3.75045">
        <ele>714.79998779297</ele>
        <time>2012-06-18T08:52:37Z</time>
      </trkpt>
      <trkpt lat="45.37605" lon="3.75053">
        <ele>716.20001220703</ele>
        <time>2012-06-18T08:52:39Z</time>
      </trkpt>
      <trkpt lat="45.37607" lon="3.75064">
        <ele>716.09997558594</ele>
        <time>2012-06-18T08:52:42Z</time>
      </trkpt>
      <trkpt lat="45.37611" lon="3.7507">
        <ele>717</ele>
        <time>2012-06-18T08:52:46Z</time>
      </trkpt>
      <trkpt lat="45.37614" lon="3.75076">
        <ele>718.20001220703</ele>
        <time>2012-06-18T08:52:49Z</time>
      </trkpt>
      <trkpt lat="45.37617" lon="3.75081">
        <ele>718.5</ele>
        <time>2012-06-18T08:52:52Z</time>
      </trkpt>
      <trkpt lat="45.37624" lon="3.75092">
        <ele>716.79998779297</ele>
        <time>2012-06-18T08:52:58Z</time>
      </trkpt>
      <trkpt lat="45.37629" lon="3.751">
        <ele>717.20001220703</ele>
        <time>2012-06-18T08:53:01Z</time>
      </trkpt>
      <trkpt lat="45.37633" lon="3.75106">
        <ele>716.20001220703</ele>
        <time>2012-06-18T08:53:04Z</time>
      </trkpt>
      <trkpt lat="45.37636" lon="3.7511">
        <ele>716.40002441406</ele>
        <time>2012-06-18T08:53:06Z</time>
      </trkpt>
      <trkpt lat="45.3764" lon="3.75116">
        <ele>713.29998779297</ele>
        <time>2012-06-18T08:53:11Z</time>
      </trkpt>
      <trkpt lat="45.37641" lon="3.75123">
        <ele>713.79998779297</ele>
        <time>2012-06-18T08:53:13Z</time>
      </trkpt>
      <trkpt lat="45.37644" lon="3.75129">
        <ele>713.40002441406</ele>
        <time>2012-06-18T08:53:16Z</time>
      </trkpt>
      <trkpt lat="45.37644" lon="3.75137">
        <ele>712.20001220703</ele>
        <time>2012-06-18T08:53:19Z</time>
      </trkpt>
      <trkpt lat="45.37647" lon="3.75144">
        <ele>712.29998779297</ele>
        <time>2012-06-18T08:53:22Z</time>
      </trkpt>
      <trkpt lat="45.37646" lon="3.75152">
        <ele>711.79998779297</ele>
        <time>2012-06-18T08:53:26Z</time>
      </trkpt>
      <trkpt lat="45.37648" lon="3.75159">
        <ele>711.79998779297</ele>
        <time>2012-06-18T08:53:29Z</time>
      </trkpt>
      <trkpt lat="45.37651" lon="3.75167">
        <ele>710</ele>
        <time>2012-06-18T08:53:31Z</time>
      </trkpt>
      <trkpt lat="45.37654" lon="3.75174">
        <ele>708.90002441406</ele>
        <time>2012-06-18T08:53:34Z</time>
      </trkpt>
      <trkpt lat="45.37654" lon="3.75181">
        <ele>708.5</ele>
        <time>2012-06-18T08:53:37Z</time>
      </trkpt>
      <trkpt lat="45.37655" lon="3.7519">
        <ele>707.70001220703</ele>
        <time>2012-06-18T08:53:40Z</time>
      </trkpt>
      <trkpt lat="45.37655" lon="3.75197">
        <ele>707.5</ele>
        <time>2012-06-18T08:53:43Z</time>
      </trkpt>
      <trkpt lat="45.37653" lon="3.75206">
        <ele>704.79998779297</ele>
        <time>2012-06-18T08:53:46Z</time>
      </trkpt>
      <trkpt lat="45.37652" lon="3.75216">
        <ele>704.90002441406</ele>
        <time>2012-06-18T08:53:51Z</time>
      </trkpt>
      <trkpt lat="45.37651" lon="3.75224">
        <ele>705.79998779297</ele>
        <time>2012-06-18T08:53:53Z</time>
      </trkpt>
      <trkpt lat="45.37652" lon="3.75232">
        <ele>705.20001220703</ele>
        <time>2012-06-18T08:53:56Z</time>
      </trkpt>
      <trkpt lat="45.37652" lon="3.75241">
        <ele>705</ele>
        <time>2012-06-18T08:53:59Z</time>
      </trkpt>
      <trkpt lat="45.37651" lon="3.75249">
        <ele>704.90002441406</ele>
        <time>2012-06-18T08:54:02Z</time>
      </trkpt>
      <trkpt lat="45.37648" lon="3.75258">
        <ele>706.79998779297</ele>
        <time>2012-06-18T08:54:05Z</time>
      </trkpt>
      <trkpt lat="45.37647" lon="3.75267">
        <ele>706.29998779297</ele>
        <time>2012-06-18T08:54:08Z</time>
      </trkpt>
      <trkpt lat="45.37646" lon="3.75273">
        <ele>703</ele>
        <time>2012-06-18T08:54:11Z</time>
      </trkpt>
      <trkpt lat="45.37641" lon="3.75286">
        <ele>700.70001220703</ele>
        <time>2012-06-18T08:54:16Z</time>
      </trkpt>
      <trkpt lat="45.37636" lon="3.75301">
        <ele>704.09997558594</ele>
        <time>2012-06-18T08:54:23Z</time>
      </trkpt>
      <trkpt lat="45.37636" lon="3.75308">
        <ele>702.29998779297</ele>
        <time>2012-06-18T08:54:26Z</time>
      </trkpt>
      <trkpt lat="45.37631" lon="3.7531">
        <ele>702.59997558594</ele>
        <time>2012-06-18T08:54:29Z</time>
      </trkpt>
      <trkpt lat="45.37625" lon="3.75309">
        <ele>703.70001220703</ele>
        <time>2012-06-18T08:54:32Z</time>
      </trkpt>
      <trkpt lat="45.37619" lon="3.75308">
        <ele>703.29998779297</ele>
        <time>2012-06-18T08:54:35Z</time>
      </trkpt>
      <trkpt lat="45.37615" lon="3.75307">
        <ele>703.40002441406</ele>
        <time>2012-06-18T08:54:37Z</time>
      </trkpt>
      <trkpt lat="45.3761" lon="3.75308">
        <ele>704.70001220703</ele>
        <time>2012-06-18T08:54:40Z</time>
      </trkpt>
      <trkpt lat="45.37601" lon="3.75307">
        <ele>705.09997558594</ele>
        <time>2012-06-18T08:54:45Z</time>
      </trkpt>
      <trkpt lat="45.37575" lon="3.75306">
        <ele>706</ele>
        <time>2012-06-18T08:54:55Z</time>
      </trkpt>
      <trkpt lat="45.3757" lon="3.75308">
        <ele>702.5</ele>
        <time>2012-06-18T08:54:58Z</time>
      </trkpt>
      <trkpt lat="45.37565" lon="3.75308">
        <ele>700.59997558594</ele>
        <time>2012-06-18T08:55:02Z</time>
      </trkpt>
      <trkpt lat="45.3756" lon="3.75307">
        <ele>700.59997558594</ele>
        <time>2012-06-18T08:55:05Z</time>
      </trkpt>
      <trkpt lat="45.37555" lon="3.75311">
        <ele>702.90002441406</ele>
        <time>2012-06-18T08:55:08Z</time>
      </trkpt>
      <trkpt lat="45.37551" lon="3.75317">
        <ele>704.59997558594</ele>
        <time>2012-06-18T08:55:12Z</time>
      </trkpt>
      <trkpt lat="45.37544" lon="3.75319">
        <ele>705.5</ele>
        <time>2012-06-18T08:55:16Z</time>
      </trkpt>
      <trkpt lat="45.3754" lon="3.75322">
        <ele>705</ele>
        <time>2012-06-18T08:55:19Z</time>
      </trkpt>
      <trkpt lat="45.37535" lon="3.75326">
        <ele>705.79998779297</ele>
        <time>2012-06-18T08:55:22Z</time>
      </trkpt>
      <trkpt lat="45.3753" lon="3.75333">
        <ele>707.09997558594</ele>
        <time>2012-06-18T08:55:25Z</time>
      </trkpt>
      <trkpt lat="45.37528" lon="3.75341">
        <ele>708.09997558594</ele>
        <time>2012-06-18T08:55:28Z</time>
      </trkpt>
      <trkpt lat="45.37525" lon="3.75347">
        <ele>710</ele>
        <time>2012-06-18T08:55:31Z</time>
      </trkpt>
      <trkpt lat="45.37523" lon="3.75354">
        <ele>710.59997558594</ele>
        <time>2012-06-18T08:55:34Z</time>
      </trkpt>
      <trkpt lat="45.37522" lon="3.7536">
        <ele>711.5</ele>
        <time>2012-06-18T08:55:36Z</time>
      </trkpt>
      <trkpt lat="45.37521" lon="3.7537">
        <ele>711.70001220703</ele>
        <time>2012-06-18T08:55:39Z</time>
      </trkpt>
      <trkpt lat="45.37521" lon="3.75376">
        <ele>711.09997558594</ele>
        <time>2012-06-18T08:55:41Z</time>
      </trkpt>
      <trkpt lat="45.37521" lon="3.75385">
        <ele>711.40002441406</ele>
        <time>2012-06-18T08:55:44Z</time>
      </trkpt>
      <trkpt lat="45.37521" lon="3.75393">
        <ele>711.29998779297</ele>
        <time>2012-06-18T08:55:47Z</time>
      </trkpt>
      <trkpt lat="45.37519" lon="3.75401">
        <ele>711</ele>
        <time>2012-06-18T08:55:50Z</time>
      </trkpt>
      <trkpt lat="45.37519" lon="3.7541">
        <ele>711.20001220703</ele>
        <time>2012-06-18T08:55:53Z</time>
      </trkpt>
      <trkpt lat="45.37518" lon="3.75416">
        <ele>709.59997558594</ele>
        <time>2012-06-18T08:55:56Z</time>
      </trkpt>
      <trkpt lat="45.37514" lon="3.75427">
        <ele>707.70001220703</ele>
        <time>2012-06-18T08:56:01Z</time>
      </trkpt>
      <trkpt lat="45.37509" lon="3.75445">
        <ele>708.40002441406</ele>
        <time>2012-06-18T08:56:08Z</time>
      </trkpt>
      <trkpt lat="45.37507" lon="3.75452">
        <ele>709.59997558594</ele>
        <time>2012-06-18T08:56:11Z</time>
      </trkpt>
      <trkpt lat="45.37505" lon="3.75458">
        <ele>709.09997558594</ele>
        <time>2012-06-18T08:56:14Z</time>
      </trkpt>
      <trkpt lat="45.37498" lon="3.75476">
        <ele>705.20001220703</ele>
        <time>2012-06-18T08:56:23Z</time>
      </trkpt>
      <trkpt lat="45.37495" lon="3.75484">
        <ele>705.70001220703</ele>
        <time>2012-06-18T08:56:25Z</time>
      </trkpt>
      <trkpt lat="45.37491" lon="3.75489">
        <ele>705.20001220703</ele>
        <time>2012-06-18T08:56:28Z</time>
      </trkpt>
      <trkpt lat="45.37487" lon="3.75498">
        <ele>705</ele>
        <time>2012-06-18T08:56:32Z</time>
      </trkpt>
      <trkpt lat="45.37483" lon="3.75503">
        <ele>694.09997558594</ele>
        <time>2012-06-18T08:56:38Z</time>
      </trkpt>
      <trkpt lat="45.37482" lon="3.7551">
        <ele>685.20001220703</ele>
        <time>2012-06-18T08:56:43Z</time>
      </trkpt>
      <trkpt lat="45.37479" lon="3.75518">
        <ele>684.79998779297</ele>
        <time>2012-06-18T08:56:46Z</time>
      </trkpt>
      <trkpt lat="45.37476" lon="3.75524">
        <ele>684.79998779297</ele>
        <time>2012-06-18T08:56:48Z</time>
      </trkpt>
      <trkpt lat="45.37473" lon="3.75529">
        <ele>678.20001220703</ele>
        <time>2012-06-18T08:56:51Z</time>
      </trkpt>
      <trkpt lat="45.37469" lon="3.75535">
        <ele>678.40002441406</ele>
        <time>2012-06-18T08:56:55Z</time>
      </trkpt>
      <trkpt lat="45.37466" lon="3.75538">
        <ele>678.5</ele>
        <time>2012-06-18T08:56:56Z</time>
      </trkpt>
      <trkpt lat="45.37462" lon="3.75543">
        <ele>678.09997558594</ele>
        <time>2012-06-18T08:56:58Z</time>
      </trkpt>
      <trkpt lat="45.37462" lon="3.75561">
        <ele>682.29998779297</ele>
        <time>2012-06-18T08:57:05Z</time>
      </trkpt>
      <trkpt lat="45.37464" lon="3.75568">
        <ele>680.40002441406</ele>
        <time>2012-06-18T08:57:08Z</time>
      </trkpt>
      <trkpt lat="45.37468" lon="3.75572">
        <ele>682.40002441406</ele>
        <time>2012-06-18T08:57:11Z</time>
      </trkpt>
      <trkpt lat="45.37471" lon="3.75577">
        <ele>684.29998779297</ele>
        <time>2012-06-18T08:57:14Z</time>
      </trkpt>
      <trkpt lat="45.37473" lon="3.75583">
        <ele>687.5</ele>
        <time>2012-06-18T08:57:16Z</time>
      </trkpt>
      <trkpt lat="45.37476" lon="3.75588">
        <ele>688.90002441406</ele>
        <time>2012-06-18T08:57:19Z</time>
      </trkpt>
      <trkpt lat="45.3748" lon="3.75591">
        <ele>689.59997558594</ele>
        <time>2012-06-18T08:57:21Z</time>
      </trkpt>
      <trkpt lat="45.37485" lon="3.75594">
        <ele>690.20001220703</ele>
        <time>2012-06-18T08:57:23Z</time>
      </trkpt>
      <trkpt lat="45.37497" lon="3.75589">
        <ele>690</ele>
        <time>2012-06-18T08:57:29Z</time>
      </trkpt>
      <trkpt lat="45.37504" lon="3.7559">
        <ele>690.20001220703</ele>
        <time>2012-06-18T08:57:32Z</time>
      </trkpt>
      <trkpt lat="45.37511" lon="3.75585">
        <ele>689.90002441406</ele>
        <time>2012-06-18T08:57:36Z</time>
      </trkpt>
      <trkpt lat="45.37515" lon="3.75585">
        <ele>689.40002441406</ele>
        <time>2012-06-18T08:57:38Z</time>
      </trkpt>
      <trkpt lat="45.37527" lon="3.75577">
        <ele>686.79998779297</ele>
        <time>2012-06-18T08:57:42Z</time>
      </trkpt>
      <trkpt lat="45.37533" lon="3.75577">
        <ele>686.90002441406</ele>
        <time>2012-06-18T08:57:44Z</time>
      </trkpt>
      <trkpt lat="45.37537" lon="3.75574">
        <ele>686.90002441406</ele>
        <time>2012-06-18T08:57:46Z</time>
      </trkpt>
      <trkpt lat="45.37542" lon="3.75571">
        <ele>684.20001220703</ele>
        <time>2012-06-18T08:57:49Z</time>
      </trkpt>
      <trkpt lat="45.37545" lon="3.75566">
        <ele>682.59997558594</ele>
        <time>2012-06-18T08:57:55Z</time>
      </trkpt>
      <trkpt lat="45.37557" lon="3.7556">
        <ele>681.59997558594</ele>
        <time>2012-06-18T08:58:02Z</time>
      </trkpt>
      <trkpt lat="45.37561" lon="3.75552">
        <ele>681.20001220703</ele>
        <time>2012-06-18T08:58:04Z</time>
      </trkpt>
      <trkpt lat="45.37565" lon="3.75555">
        <ele>680</ele>
        <time>2012-06-18T08:58:05Z</time>
      </trkpt>
      <trkpt lat="45.37571" lon="3.75549">
        <ele>680.29998779297</ele>
        <time>2012-06-18T08:58:08Z</time>
      </trkpt>
      <trkpt lat="45.37576" lon="3.75546">
        <ele>680.90002441406</ele>
        <time>2012-06-18T08:58:10Z</time>
      </trkpt>
      <trkpt lat="45.37583" lon="3.75544">
        <ele>682.40002441406</ele>
        <time>2012-06-18T08:58:14Z</time>
      </trkpt>
      <trkpt lat="45.37603" lon="3.75541">
        <ele>681.09997558594</ele>
        <time>2012-06-18T08:58:26Z</time>
      </trkpt>
      <trkpt lat="45.3761" lon="3.7554">
        <ele>680.20001220703</ele>
        <time>2012-06-18T08:58:29Z</time>
      </trkpt>
      <trkpt lat="45.37614" lon="3.75542">
        <ele>678.79998779297</ele>
        <time>2012-06-18T08:58:32Z</time>
      </trkpt>
      <trkpt lat="45.37617" lon="3.75547">
        <ele>680.09997558594</ele>
        <time>2012-06-18T08:58:34Z</time>
      </trkpt>
      <trkpt lat="45.37618" lon="3.75554">
        <ele>680.59997558594</ele>
        <time>2012-06-18T08:58:36Z</time>
      </trkpt>
      <trkpt lat="45.3762" lon="3.75563">
        <ele>679.59997558594</ele>
        <time>2012-06-18T08:58:39Z</time>
      </trkpt>
      <trkpt lat="45.37622" lon="3.75569">
        <ele>680.40002441406</ele>
        <time>2012-06-18T08:58:41Z</time>
      </trkpt>
      <trkpt lat="45.37625" lon="3.75576">
        <ele>680.5</ele>
        <time>2012-06-18T08:58:44Z</time>
      </trkpt>
      <trkpt lat="45.37628" lon="3.75585">
        <ele>681.40002441406</ele>
        <time>2012-06-18T08:58:47Z</time>
      </trkpt>
      <trkpt lat="45.37633" lon="3.756">
        <ele>681.70001220703</ele>
        <time>2012-06-18T08:58:53Z</time>
      </trkpt>
      <trkpt lat="45.37635" lon="3.75607">
        <ele>683.20001220703</ele>
        <time>2012-06-18T08:58:55Z</time>
      </trkpt>
      <trkpt lat="45.37636" lon="3.75615">
        <ele>683.59997558594</ele>
        <time>2012-06-18T08:58:58Z</time>
      </trkpt>
      <trkpt lat="45.37638" lon="3.75622">
        <ele>683.09997558594</ele>
        <time>2012-06-18T08:59:01Z</time>
      </trkpt>
      <trkpt lat="45.3764" lon="3.75628">
        <ele>682.09997558594</ele>
        <time>2012-06-18T08:59:03Z</time>
      </trkpt>
      <trkpt lat="45.37643" lon="3.75635">
        <ele>682.40002441406</ele>
        <time>2012-06-18T08:59:06Z</time>
      </trkpt>
      <trkpt lat="45.37644" lon="3.75641">
        <ele>683.5</ele>
        <time>2012-06-18T08:59:08Z</time>
      </trkpt>
      <trkpt lat="45.37647" lon="3.75649">
        <ele>683</ele>
        <time>2012-06-18T08:59:11Z</time>
      </trkpt>
      <trkpt lat="45.37648" lon="3.75658">
        <ele>684.90002441406</ele>
        <time>2012-06-18T08:59:14Z</time>
      </trkpt>
      <trkpt lat="45.37649" lon="3.75664">
        <ele>685.20001220703</ele>
        <time>2012-06-18T08:59:16Z</time>
      </trkpt>
      <trkpt lat="45.37655" lon="3.75688">
        <ele>682.5</ele>
        <time>2012-06-18T08:59:26Z</time>
      </trkpt>
      <trkpt lat="45.37658" lon="3.75694">
        <ele>683.59997558594</ele>
        <time>2012-06-18T08:59:29Z</time>
      </trkpt>
      <trkpt lat="45.37661" lon="3.757">
        <ele>684</ele>
        <time>2012-06-18T08:59:32Z</time>
      </trkpt>
      <trkpt lat="45.37663" lon="3.7571">
        <ele>684.09997558594</ele>
        <time>2012-06-18T08:59:37Z</time>
      </trkpt>
      <trkpt lat="45.37666" lon="3.75718">
        <ele>686.79998779297</ele>
        <time>2012-06-18T08:59:40Z</time>
      </trkpt>
      <trkpt lat="45.37666" lon="3.75728">
        <ele>688.90002441406</ele>
        <time>2012-06-18T08:59:43Z</time>
      </trkpt>
      <trkpt lat="45.37669" lon="3.75733">
        <ele>689</ele>
        <time>2012-06-18T08:59:45Z</time>
      </trkpt>
      <trkpt lat="45.37672" lon="3.75741">
        <ele>689.20001220703</ele>
        <time>2012-06-18T08:59:48Z</time>
      </trkpt>
      <trkpt lat="45.3769" lon="3.75764">
        <ele>685.79998779297</ele>
        <time>2012-06-18T08:59:57Z</time>
      </trkpt>
      <trkpt lat="45.37694" lon="3.75769">
        <ele>685.79998779297</ele>
        <time>2012-06-18T09:00:00Z</time>
      </trkpt>
      <trkpt lat="45.37698" lon="3.75764">
        <ele>680.09997558594</ele>
        <time>2012-06-18T09:00:07Z</time>
      </trkpt>
      <trkpt lat="45.37701" lon="3.75758">
        <ele>680.59997558594</ele>
        <time>2012-06-18T09:00:10Z</time>
      </trkpt>
      <trkpt lat="45.37703" lon="3.75752">
        <ele>680.18670654297</ele>
        <time>2012-06-18T09:00:11Z</time>
      </trkpt>
      <trkpt lat="45.37703" lon="3.75744">
        <ele>676.09997558594</ele>
        <time>2012-06-18T09:00:14Z</time>
      </trkpt>
      <trkpt lat="45.37707" lon="3.75738">
        <ele>674.5</ele>
        <time>2012-06-18T09:00:18Z</time>
      </trkpt>
      <trkpt lat="45.37707" lon="3.7573">
        <ele>673.29998779297</ele>
        <time>2012-06-18T09:00:22Z</time>
      </trkpt>
      <trkpt lat="45.37709" lon="3.75723">
        <ele>672.09997558594</ele>
        <time>2012-06-18T09:00:25Z</time>
      </trkpt>
      <trkpt lat="45.37713" lon="3.75718">
        <ele>671</ele>
        <time>2012-06-18T09:00:27Z</time>
      </trkpt>
      <trkpt lat="45.37732" lon="3.75702">
        <ele>668.20001220703</ele>
        <time>2012-06-18T09:00:39Z</time>
      </trkpt>
      <trkpt lat="45.37736" lon="3.75695">
        <ele>672.79998779297</ele>
        <time>2012-06-18T09:00:44Z</time>
      </trkpt>
      <trkpt lat="45.37737" lon="3.75695">
        <ele>673.31396484375</ele>
        <time>2012-06-18T09:00:45Z</time>
      </trkpt>
      <trkpt lat="45.37747" lon="3.75692">
        <ele>677</ele>
        <time>2012-06-18T09:00:49Z</time>
      </trkpt>
      <trkpt lat="45.37752" lon="3.75691">
        <ele>677.59997558594</ele>
        <time>2012-06-18T09:00:51Z</time>
      </trkpt>
      <trkpt lat="45.3776" lon="3.75683">
        <ele>679.79998779297</ele>
        <time>2012-06-18T09:00:56Z</time>
      </trkpt>
      <trkpt lat="45.37766" lon="3.75678">
        <ele>676</ele>
        <time>2012-06-18T09:01:00Z</time>
      </trkpt>
      <trkpt lat="45.37772" lon="3.75675">
        <ele>677.70001220703</ele>
        <time>2012-06-18T09:01:04Z</time>
      </trkpt>
      <trkpt lat="45.37778" lon="3.7567">
        <ele>677</ele>
        <time>2012-06-18T09:01:07Z</time>
      </trkpt>
      <trkpt lat="45.37784" lon="3.75666">
        <ele>676.29998779297</ele>
        <time>2012-06-18T09:01:10Z</time>
      </trkpt>
      <trkpt lat="45.3779" lon="3.75662">
        <ele>674.70001220703</ele>
        <time>2012-06-18T09:01:13Z</time>
      </trkpt>
      <trkpt lat="45.37797" lon="3.75657">
        <ele>674.70001220703</ele>
        <time>2012-06-18T09:01:18Z</time>
      </trkpt>
      <trkpt lat="45.37802" lon="3.75654">
        <ele>675.90002441406</ele>
        <time>2012-06-18T09:01:20Z</time>
      </trkpt>
      <trkpt lat="45.37807" lon="3.75648">
        <ele>673.40002441406</ele>
        <time>2012-06-18T09:01:24Z</time>
      </trkpt>
      <trkpt lat="45.37833" lon="3.7562">
        <ele>673.90002441406</ele>
        <time>2012-06-18T09:01:36Z</time>
      </trkpt>
      <trkpt lat="45.37838" lon="3.75624">
        <ele>677.90002441406</ele>
        <time>2012-06-18T09:01:39Z</time>
      </trkpt>
      <trkpt lat="45.37842" lon="3.75618">
        <ele>677.29998779297</ele>
        <time>2012-06-18T09:01:44Z</time>
      </trkpt>
      <trkpt lat="45.37847" lon="3.75613">
        <ele>677.70001220703</ele>
        <time>2012-06-18T09:01:47Z</time>
      </trkpt>
      <trkpt lat="45.37852" lon="3.75611">
        <ele>679.59997558594</ele>
        <time>2012-06-18T09:01:49Z</time>
      </trkpt>
      <trkpt lat="45.37859" lon="3.75608">
        <ele>677.59997558594</ele>
        <time>2012-06-18T09:01:52Z</time>
      </trkpt>
      <trkpt lat="45.37864" lon="3.75605">
        <ele>679.09997558594</ele>
        <time>2012-06-18T09:01:54Z</time>
      </trkpt>
      <trkpt lat="45.37868" lon="3.75604">
        <ele>678.70001220703</ele>
        <time>2012-06-18T09:01:56Z</time>
      </trkpt>
      <trkpt lat="45.37872" lon="3.75599">
        <ele>676.20001220703</ele>
        <time>2012-06-18T09:02:00Z</time>
      </trkpt>
      <trkpt lat="45.37878" lon="3.75597">
        <ele>677.5</ele>
        <time>2012-06-18T09:02:02Z</time>
      </trkpt>
      <trkpt lat="45.37882" lon="3.75594">
        <ele>677</ele>
        <time>2012-06-18T09:02:04Z</time>
      </trkpt>
      <trkpt lat="45.37889" lon="3.7559">
        <ele>678.40002441406</ele>
        <time>2012-06-18T09:02:07Z</time>
      </trkpt>
      <trkpt lat="45.37899" lon="3.75585">
        <ele>679.40002441406</ele>
        <time>2012-06-18T09:02:12Z</time>
      </trkpt>
      <trkpt lat="45.37904" lon="3.75581">
        <ele>680</ele>
        <time>2012-06-18T09:02:14Z</time>
      </trkpt>
      <trkpt lat="45.37909" lon="3.75578">
        <ele>678.90002441406</ele>
        <time>2012-06-18T09:02:17Z</time>
      </trkpt>
      <trkpt lat="45.37915" lon="3.75577">
        <ele>679.59997558594</ele>
        <time>2012-06-18T09:02:20Z</time>
      </trkpt>
      <trkpt lat="45.3792" lon="3.75572">
        <ele>679.59997558594</ele>
        <time>2012-06-18T09:02:23Z</time>
      </trkpt>
      <trkpt lat="45.37926" lon="3.75568">
        <ele>679.90002441406</ele>
        <time>2012-06-18T09:02:26Z</time>
      </trkpt>
      <trkpt lat="45.37929" lon="3.75563">
        <ele>678.70001220703</ele>
        <time>2012-06-18T09:02:29Z</time>
      </trkpt>
      <trkpt lat="45.37937" lon="3.75558">
        <ele>677</ele>
        <time>2012-06-18T09:02:32Z</time>
      </trkpt>
      <trkpt lat="45.37943" lon="3.75554">
        <ele>677</ele>
        <time>2012-06-18T09:02:35Z</time>
      </trkpt>
      <trkpt lat="45.37949" lon="3.7555">
        <ele>675.79998779297</ele>
        <time>2012-06-18T09:02:38Z</time>
      </trkpt>
      <trkpt lat="45.37956" lon="3.75546">
        <ele>674.79998779297</ele>
        <time>2012-06-18T09:02:41Z</time>
      </trkpt>
      <trkpt lat="45.37964" lon="3.75542">
        <ele>672.09997558594</ele>
        <time>2012-06-18T09:02:46Z</time>
      </trkpt>
      <trkpt lat="45.37977" lon="3.75529">
        <ele>675.09997558594</ele>
        <time>2012-06-18T09:02:53Z</time>
      </trkpt>
      <trkpt lat="45.37982" lon="3.75527">
        <ele>673.20001220703</ele>
        <time>2012-06-18T09:02:56Z</time>
      </trkpt>
      <trkpt lat="45.37986" lon="3.75524">
        <ele>672.90002441406</ele>
        <time>2012-06-18T09:02:58Z</time>
      </trkpt>
      <trkpt lat="45.37991" lon="3.7552">
        <ele>673.09997558594</ele>
        <time>2012-06-18T09:03:01Z</time>
      </trkpt>
      <trkpt lat="45.37995" lon="3.75514">
        <ele>672.09997558594</ele>
        <time>2012-06-18T09:03:04Z</time>
      </trkpt>
      <trkpt lat="45.38" lon="3.7551">
        <ele>671.59997558594</ele>
        <time>2012-06-18T09:03:07Z</time>
      </trkpt>
      <trkpt lat="45.38005" lon="3.75506">
        <ele>672.20001220703</ele>
        <time>2012-06-18T09:03:10Z</time>
      </trkpt>
      <trkpt lat="45.38018" lon="3.75498">
        <ele>673.29998779297</ele>
        <time>2012-06-18T09:03:16Z</time>
      </trkpt>
      <trkpt lat="45.38023" lon="3.75494">
        <ele>672.70001220703</ele>
        <time>2012-06-18T09:03:19Z</time>
      </trkpt>
      <trkpt lat="45.38027" lon="3.75488">
        <ele>673.09997558594</ele>
        <time>2012-06-18T09:03:22Z</time>
      </trkpt>
      <trkpt lat="45.38032" lon="3.75484">
        <ele>674</ele>
        <time>2012-06-18T09:03:25Z</time>
      </trkpt>
      <trkpt lat="45.38043" lon="3.7548">
        <ele>671.79998779297</ele>
        <time>2012-06-18T09:03:31Z</time>
      </trkpt>
      <trkpt lat="45.3805" lon="3.75476">
        <ele>671.09997558594</ele>
        <time>2012-06-18T09:03:34Z</time>
      </trkpt>
      <trkpt lat="45.38054" lon="3.75473">
        <ele>671</ele>
        <time>2012-06-18T09:03:36Z</time>
      </trkpt>
      <trkpt lat="45.3806" lon="3.7547">
        <ele>670.29998779297</ele>
        <time>2012-06-18T09:03:40Z</time>
      </trkpt>
      <trkpt lat="45.38064" lon="3.75466">
        <ele>665.5</ele>
        <time>2012-06-18T09:03:43Z</time>
      </trkpt>
      <trkpt lat="45.3807" lon="3.75461">
        <ele>665.29998779297</ele>
        <time>2012-06-18T09:03:46Z</time>
      </trkpt>
      <trkpt lat="45.38087" lon="3.75438">
        <ele>667.70001220703</ele>
        <time>2012-06-18T09:03:57Z</time>
      </trkpt>
      <trkpt lat="45.38109" lon="3.75413">
        <ele>669.70001220703</ele>
        <time>2012-06-18T09:04:10Z</time>
      </trkpt>
      <trkpt lat="45.38119" lon="3.75394">
        <ele>669.90002441406</ele>
        <time>2012-06-18T09:04:18Z</time>
      </trkpt>
      <trkpt lat="45.3813" lon="3.75382">
        <ele>665.79998779297</ele>
        <time>2012-06-18T09:04:25Z</time>
      </trkpt>
      <trkpt lat="45.38135" lon="3.75376">
        <ele>664.90002441406</ele>
        <time>2012-06-18T09:04:29Z</time>
      </trkpt>
      <trkpt lat="45.38144" lon="3.75377">
        <ele>664.59997558594</ele>
        <time>2012-06-18T09:04:33Z</time>
      </trkpt>
      <trkpt lat="45.38145" lon="3.75376">
        <ele>664.3984375</ele>
        <time>2012-06-18T09:04:34Z</time>
      </trkpt>
      <trkpt lat="45.38153" lon="3.75365">
        <ele>662.70001220703</ele>
        <time>2012-06-18T09:04:37Z</time>
      </trkpt>
      <trkpt lat="45.38156" lon="3.7536">
        <ele>664</ele>
        <time>2012-06-18T09:04:40Z</time>
      </trkpt>
      <trkpt lat="45.38171" lon="3.75351">
        <ele>669.59997558594</ele>
        <time>2012-06-18T09:04:48Z</time>
      </trkpt>
      <trkpt lat="45.38177" lon="3.75346">
        <ele>673.09997558594</ele>
        <time>2012-06-18T09:04:51Z</time>
      </trkpt>
      <trkpt lat="45.38182" lon="3.7534">
        <ele>670.59997558594</ele>
        <time>2012-06-18T09:04:54Z</time>
      </trkpt>
      <trkpt lat="45.38186" lon="3.75334">
        <ele>670.09997558594</ele>
        <time>2012-06-18T09:04:57Z</time>
      </trkpt>
      <trkpt lat="45.3819" lon="3.75328">
        <ele>670.79998779297</ele>
        <time>2012-06-18T09:05:00Z</time>
      </trkpt>
      <trkpt lat="45.38199" lon="3.75318">
        <ele>672.20001220703</ele>
        <time>2012-06-18T09:05:06Z</time>
      </trkpt>
      <trkpt lat="45.38203" lon="3.75314">
        <ele>671.40002441406</ele>
        <time>2012-06-18T09:05:08Z</time>
      </trkpt>
      <trkpt lat="45.38206" lon="3.75308">
        <ele>671.40002441406</ele>
        <time>2012-06-18T09:05:12Z</time>
      </trkpt>
      <trkpt lat="45.38222" lon="3.75296">
        <ele>671.90002441406</ele>
        <time>2012-06-18T09:05:24Z</time>
      </trkpt>
      <trkpt lat="45.38226" lon="3.75294">
        <ele>671.40002441406</ele>
        <time>2012-06-18T09:05:27Z</time>
      </trkpt>
      <trkpt lat="45.38233" lon="3.75292">
        <ele>672</ele>
        <time>2012-06-18T09:05:31Z</time>
      </trkpt>
      <trkpt lat="45.3824" lon="3.75272">
        <ele>669.79998779297</ele>
        <time>2012-06-18T09:05:39Z</time>
      </trkpt>
      <trkpt lat="45.38249" lon="3.75269">
        <ele>670.40002441406</ele>
        <time>2012-06-18T09:05:45Z</time>
      </trkpt>
      <trkpt lat="45.38255" lon="3.75265">
        <ele>668.79998779297</ele>
        <time>2012-06-18T09:05:48Z</time>
      </trkpt>
      <trkpt lat="45.38259" lon="3.75258">
        <ele>665.90002441406</ele>
        <time>2012-06-18T09:05:51Z</time>
      </trkpt>
      <trkpt lat="45.38263" lon="3.75251">
        <ele>663.29998779297</ele>
        <time>2012-06-18T09:05:55Z</time>
      </trkpt>
      <trkpt lat="45.38266" lon="3.75244">
        <ele>662.59997558594</ele>
        <time>2012-06-18T09:05:58Z</time>
      </trkpt>
      <trkpt lat="45.38269" lon="3.75237">
        <ele>663.29998779297</ele>
        <time>2012-06-18T09:06:01Z</time>
      </trkpt>
      <trkpt lat="45.38288" lon="3.75212">
        <ele>662.09997558594</ele>
        <time>2012-06-18T09:06:13Z</time>
      </trkpt>
      <trkpt lat="45.38292" lon="3.75204">
        <ele>661.29998779297</ele>
        <time>2012-06-18T09:06:16Z</time>
      </trkpt>
      <trkpt lat="45.38294" lon="3.75196">
        <ele>660.79998779297</ele>
        <time>2012-06-18T09:06:19Z</time>
      </trkpt>
      <trkpt lat="45.38293" lon="3.75189">
        <ele>659.40002441406</ele>
        <time>2012-06-18T09:06:21Z</time>
      </trkpt>
      <trkpt lat="45.38292" lon="3.75182">
        <ele>658</ele>
        <time>2012-06-18T09:06:24Z</time>
      </trkpt>
      <trkpt lat="45.38294" lon="3.75175">
        <ele>658.09997558594</ele>
        <time>2012-06-18T09:06:25Z</time>
      </trkpt>
      <trkpt lat="45.38289" lon="3.75171">
        <ele>659.70001220703</ele>
        <time>2012-06-18T09:06:27Z</time>
      </trkpt>
      <trkpt lat="45.38293" lon="3.75164">
        <ele>662.29998779297</ele>
        <time>2012-06-18T09:06:30Z</time>
      </trkpt>
      <trkpt lat="45.38295" lon="3.75156">
        <ele>662.29998779297</ele>
        <time>2012-06-18T09:06:33Z</time>
      </trkpt>
      <trkpt lat="45.38297" lon="3.75145">
        <ele>660</ele>
        <time>2012-06-18T09:06:37Z</time>
      </trkpt>
      <trkpt lat="45.38302" lon="3.7514">
        <ele>657.29998779297</ele>
        <time>2012-06-18T09:06:41Z</time>
      </trkpt>
      <trkpt lat="45.38307" lon="3.75135">
        <ele>655.5</ele>
        <time>2012-06-18T09:06:43Z</time>
      </trkpt>
      <trkpt lat="45.38311" lon="3.75129">
        <ele>656.90002441406</ele>
        <time>2012-06-18T09:06:46Z</time>
      </trkpt>
      <trkpt lat="45.38317" lon="3.75126">
        <ele>659.29998779297</ele>
        <time>2012-06-18T09:06:49Z</time>
      </trkpt>
      <trkpt lat="45.38321" lon="3.75122">
        <ele>660.40002441406</ele>
        <time>2012-06-18T09:06:51Z</time>
      </trkpt>
      <trkpt lat="45.38326" lon="3.75117">
        <ele>662.09997558594</ele>
        <time>2012-06-18T09:06:54Z</time>
      </trkpt>
      <trkpt lat="45.38329" lon="3.7511">
        <ele>662.59997558594</ele>
        <time>2012-06-18T09:06:57Z</time>
      </trkpt>
      <trkpt lat="45.38333" lon="3.75104">
        <ele>662.5</ele>
        <time>2012-06-18T09:07:00Z</time>
      </trkpt>
      <trkpt lat="45.38338" lon="3.75098">
        <ele>662.29998779297</ele>
        <time>2012-06-18T09:07:03Z</time>
      </trkpt>
      <trkpt lat="45.38342" lon="3.75092">
        <ele>661.90002441406</ele>
        <time>2012-06-18T09:07:06Z</time>
      </trkpt>
      <trkpt lat="45.38346" lon="3.75086">
        <ele>661.70001220703</ele>
        <time>2012-06-18T09:07:09Z</time>
      </trkpt>
      <trkpt lat="45.38349" lon="3.7508">
        <ele>661.5</ele>
        <time>2012-06-18T09:07:12Z</time>
      </trkpt>
      <trkpt lat="45.38353" lon="3.75074">
        <ele>661</ele>
        <time>2012-06-18T09:07:15Z</time>
      </trkpt>
      <trkpt lat="45.38357" lon="3.75066">
        <ele>662.59997558594</ele>
        <time>2012-06-18T09:07:19Z</time>
      </trkpt>
      <trkpt lat="45.38358" lon="3.75059">
        <ele>661.20001220703</ele>
        <time>2012-06-18T09:07:22Z</time>
      </trkpt>
      <trkpt lat="45.38359" lon="3.75051">
        <ele>660.90002441406</ele>
        <time>2012-06-18T09:07:25Z</time>
      </trkpt>
      <trkpt lat="45.38363" lon="3.7501">
        <ele>657.5</ele>
        <time>2012-06-18T09:07:35Z</time>
      </trkpt>
      <trkpt lat="45.38359" lon="3.75005">
        <ele>657.29998779297</ele>
        <time>2012-06-18T09:07:37Z</time>
      </trkpt>
      <trkpt lat="45.38355" lon="3.75">
        <ele>656.5</ele>
        <time>2012-06-18T09:07:40Z</time>
      </trkpt>
      <trkpt lat="45.3835" lon="3.74998">
        <ele>655.29998779297</ele>
        <time>2012-06-18T09:07:44Z</time>
      </trkpt>
      <trkpt lat="45.38345" lon="3.74996">
        <ele>655.90002441406</ele>
        <time>2012-06-18T09:07:47Z</time>
      </trkpt>
      <trkpt lat="45.38339" lon="3.74995">
        <ele>653.90002441406</ele>
        <time>2012-06-18T09:07:51Z</time>
      </trkpt>
      <trkpt lat="45.38332" lon="3.74991">
        <ele>656.79998779297</ele>
        <time>2012-06-18T09:07:55Z</time>
      </trkpt>
      <trkpt lat="45.38328" lon="3.74991">
        <ele>657.90002441406</ele>
        <time>2012-06-18T09:07:58Z</time>
      </trkpt>
      <trkpt lat="45.38323" lon="3.74989">
        <ele>657.90002441406</ele>
        <time>2012-06-18T09:08:01Z</time>
      </trkpt>
      <trkpt lat="45.38317" lon="3.7499">
        <ele>658</ele>
        <time>2012-06-18T09:08:04Z</time>
      </trkpt>
      <trkpt lat="45.38298" lon="3.74988">
        <ele>657.90002441406</ele>
        <time>2012-06-18T09:08:14Z</time>
      </trkpt>
      <trkpt lat="45.38293" lon="3.74988">
        <ele>655.40002441406</ele>
        <time>2012-06-18T09:08:16Z</time>
      </trkpt>
      <trkpt lat="45.38288" lon="3.74992">
        <ele>656.79998779297</ele>
        <time>2012-06-18T09:08:19Z</time>
      </trkpt>
      <trkpt lat="45.38282" lon="3.74997">
        <ele>658.09997558594</ele>
        <time>2012-06-18T09:08:23Z</time>
      </trkpt>
      <trkpt lat="45.38277" lon="3.75001">
        <ele>660.5</ele>
        <time>2012-06-18T09:08:26Z</time>
      </trkpt>
      <trkpt lat="45.38273" lon="3.75006">
        <ele>661</ele>
        <time>2012-06-18T09:08:29Z</time>
      </trkpt>
      <trkpt lat="45.38267" lon="3.75008">
        <ele>661.09997558594</ele>
        <time>2012-06-18T09:08:32Z</time>
      </trkpt>
      <trkpt lat="45.38261" lon="3.75011">
        <ele>662.59997558594</ele>
        <time>2012-06-18T09:08:35Z</time>
      </trkpt>
      <trkpt lat="45.38252" lon="3.75013">
        <ele>664.59997558594</ele>
        <time>2012-06-18T09:08:40Z</time>
      </trkpt>
      <trkpt lat="45.38245" lon="3.75011">
        <ele>665.40002441406</ele>
        <time>2012-06-18T09:08:43Z</time>
      </trkpt>
      <trkpt lat="45.38242" lon="3.75006">
        <ele>665.90002441406</ele>
        <time>2012-06-18T09:08:45Z</time>
      </trkpt>
      <trkpt lat="45.3824" lon="3.75">
        <ele>666.09997558594</ele>
        <time>2012-06-18T09:08:47Z</time>
      </trkpt>
      <trkpt lat="45.38237" lon="3.74994">
        <ele>665.59997558594</ele>
        <time>2012-06-18T09:08:49Z</time>
      </trkpt>
      <trkpt lat="45.38233" lon="3.74987">
        <ele>666</ele>
        <time>2012-06-18T09:08:52Z</time>
      </trkpt>
      <trkpt lat="45.3823" lon="3.7498">
        <ele>665.90002441406</ele>
        <time>2012-06-18T09:08:55Z</time>
      </trkpt>
      <trkpt lat="45.38227" lon="3.74972">
        <ele>666.29998779297</ele>
        <time>2012-06-18T09:08:58Z</time>
      </trkpt>
      <trkpt lat="45.38223" lon="3.74966">
        <ele>665.79998779297</ele>
        <time>2012-06-18T09:09:01Z</time>
      </trkpt>
      <trkpt lat="45.38212" lon="3.74952">
        <ele>664.59997558594</ele>
        <time>2012-06-18T09:09:07Z</time>
      </trkpt>
      <trkpt lat="45.38209" lon="3.74946">
        <ele>663.90002441406</ele>
        <time>2012-06-18T09:09:09Z</time>
      </trkpt>
      <trkpt lat="45.38205" lon="3.74941">
        <ele>663.59997558594</ele>
        <time>2012-06-18T09:09:11Z</time>
      </trkpt>
      <trkpt lat="45.38199" lon="3.74936">
        <ele>661.20001220703</ele>
        <time>2012-06-18T09:09:14Z</time>
      </trkpt>
      <trkpt lat="45.38195" lon="3.74932">
        <ele>661</ele>
        <time>2012-06-18T09:09:16Z</time>
      </trkpt>
      <trkpt lat="45.38191" lon="3.74929">
        <ele>660.40002441406</ele>
        <time>2012-06-18T09:09:18Z</time>
      </trkpt>
      <trkpt lat="45.38186" lon="3.74926">
        <ele>658.59997558594</ele>
        <time>2012-06-18T09:09:21Z</time>
      </trkpt>
      <trkpt lat="45.3818" lon="3.74923">
        <ele>656</ele>
        <time>2012-06-18T09:09:24Z</time>
      </trkpt>
      <trkpt lat="45.38176" lon="3.74919">
        <ele>656.59997558594</ele>
        <time>2012-06-18T09:09:27Z</time>
      </trkpt>
      <trkpt lat="45.38168" lon="3.74916">
        <ele>651.29998779297</ele>
        <time>2012-06-18T09:09:30Z</time>
      </trkpt>
      <trkpt lat="45.38153" lon="3.74905">
        <ele>649.79998779297</ele>
        <time>2012-06-18T09:09:37Z</time>
      </trkpt>
      <trkpt lat="45.38147" lon="3.74902">
        <ele>649.90002441406</ele>
        <time>2012-06-18T09:09:40Z</time>
      </trkpt>
      <trkpt lat="45.38142" lon="3.74898">
        <ele>650.79998779297</ele>
        <time>2012-06-18T09:09:44Z</time>
      </trkpt>
      <trkpt lat="45.38137" lon="3.74895">
        <ele>650.40002441406</ele>
        <time>2012-06-18T09:09:47Z</time>
      </trkpt>
      <trkpt lat="45.38132" lon="3.74891">
        <ele>652.5</ele>
        <time>2012-06-18T09:09:50Z</time>
      </trkpt>
      <trkpt lat="45.38127" lon="3.74887">
        <ele>653.5</ele>
        <time>2012-06-18T09:09:53Z</time>
      </trkpt>
      <trkpt lat="45.38114" lon="3.74883">
        <ele>653.90002441406</ele>
        <time>2012-06-18T09:10:00Z</time>
      </trkpt>
      <trkpt lat="45.381" lon="3.74881">
        <ele>654.79998779297</ele>
        <time>2012-06-18T09:10:07Z</time>
      </trkpt>
      <trkpt lat="45.38095" lon="3.7488">
        <ele>656.40002441406</ele>
        <time>2012-06-18T09:10:09Z</time>
      </trkpt>
      <trkpt lat="45.38089" lon="3.74878">
        <ele>656</ele>
        <time>2012-06-18T09:10:12Z</time>
      </trkpt>
      <trkpt lat="45.38084" lon="3.74878">
        <ele>657</ele>
        <time>2012-06-18T09:10:15Z</time>
      </trkpt>
      <trkpt lat="45.38076" lon="3.74877">
        <ele>659.09997558594</ele>
        <time>2012-06-18T09:10:19Z</time>
      </trkpt>
      <trkpt lat="45.3807" lon="3.74874">
        <ele>660.20001220703</ele>
        <time>2012-06-18T09:10:22Z</time>
      </trkpt>
      <trkpt lat="45.38066" lon="3.7487">
        <ele>659.70001220703</ele>
        <time>2012-06-18T09:10:24Z</time>
      </trkpt>
      <trkpt lat="45.38062" lon="3.74865">
        <ele>659.59997558594</ele>
        <time>2012-06-18T09:10:27Z</time>
      </trkpt>
      <trkpt lat="45.38058" lon="3.74861">
        <ele>660.90002441406</ele>
        <time>2012-06-18T09:10:31Z</time>
      </trkpt>
      <trkpt lat="45.38053" lon="3.74857">
        <ele>662</ele>
        <time>2012-06-18T09:10:36Z</time>
      </trkpt>
      <trkpt lat="45.38049" lon="3.74853">
        <ele>664.70001220703</ele>
        <time>2012-06-18T09:10:57Z</time>
      </trkpt>
      <trkpt lat="45.38044" lon="3.74852">
        <ele>666.09997558594</ele>
        <time>2012-06-18T09:11:10Z</time>
      </trkpt>
      <trkpt lat="45.38039" lon="3.74852">
        <ele>666.40002441406</ele>
        <time>2012-06-18T09:11:17Z</time>
      </trkpt>
    </trkseg>
  </trk>
</gpx>